sensor_id;sensor_type;location;lat;lon;timestamp;P1;durP1;ratioP1;P2;durP2;ratioP2
30303;SDS011;17112;48.636;10.152;2023-02-01T00:02:06;9.45;;;3.35;;
30303;SDS011;17112;48.636;10.152;2023-02-01T00:04:32;5.68;;;3.30;;
30303;SDS011;17112;48.636;10.152;2023-02-01T00:06:57;5.47;;;3.67;;
30303;SDS011;17112;48.636;10.152;2023-02-01T00:09:23;6.45;;;4.03;;
30303;SDS011;17112;48.636;10.152;2023-02-01T00:11:49;5.80;;;3.20;;
30303;SDS011;17112;48.636;10.152;2023-02-01T00:14:14;5.70;;;3.47;;
30303;SDS011;17112;48.636;10.152;2023-02-01T00:16:40;6.50;;;3.67;;
30303;SDS011;17112;48.636;10.152;2023-02-01T00:19:10;5.47;;;3.50;;
30303;SDS011;17112;48.636;10.152;2023-02-01T00:21:38;8.13;;;3.58;;
30303;SDS011;17112;48.636;10.152;2023-02-01T00:24:03;6.65;;;3.15;;
30303;SDS011;17112;48.636;10.152;2023-02-01T00:29:00;4.15;;;2.95;;
30303;SDS011;17112;48.636;10.152;2023-02-01T00:31:27;3.25;;;2.50;;
30303;SDS011;17112;48.636;10.152;2023-02-01T00:33:53;4.85;;;3.13;;
30303;SDS011;17112;48.636;10.152;2023-02-01T00:36:18;3.22;;;2.60;;
30303;SDS011;17112;48.636;10.152;2023-02-01T00:38:44;4.78;;;3.03;;
30303;SDS011;17112;48.636;10.152;2023-02-01T00:41:14;4.75;;;2.80;;
30303;SDS011;17112;48.636;10.152;2023-02-01T00:43:41;6.47;;;3.40;;
30303;SDS011;17112;48.636;10.152;2023-02-01T00:46:07;4.40;;;2.70;;
30303;SDS011;17112;48.636;10.152;2023-02-01T00:48:33;4.38;;;3.00;;
30303;SDS011;17112;48.636;10.152;2023-02-01T00:50:59;5.80;;;3.28;;
30303;SDS011;17112;48.636;10.152;2023-02-01T00:53:29;4.10;;;2.83;;
30303;SDS011;17112;48.636;10.152;2023-02-01T00:55:56;4.65;;;2.83;;
30303;SDS011;17112;48.636;10.152;2023-02-01T00:58:22;5.15;;;2.75;;
30303;SDS011;17112;48.636;10.152;2023-02-01T01:01:07;5.15;;;2.70;;
30303;SDS011;17112;48.636;10.152;2023-02-01T01:03:36;4.13;;;2.90;;
30303;SDS011;17112;48.636;10.152;2023-02-01T01:06:05;3.83;;;2.72;;
30303;SDS011;17112;48.636;10.152;2023-02-01T01:08:33;6.10;;;2.95;;
30303;SDS011;17112;48.636;10.152;2023-02-01T01:11:04;3.67;;;2.97;;
30303;SDS011;17112;48.636;10.152;2023-02-01T01:13:31;4.82;;;2.97;;
30303;SDS011;17112;48.636;10.152;2023-02-01T01:15:59;3.75;;;2.85;;
30303;SDS011;17112;48.636;10.152;2023-02-01T01:18:31;3.88;;;3.20;;
30303;SDS011;17112;48.636;10.152;2023-02-01T01:20:57;6.60;;;3.10;;
30303;SDS011;17112;48.636;10.152;2023-02-01T01:23:24;4.57;;;2.90;;
30303;SDS011;17112;48.636;10.152;2023-02-01T01:25:49;3.05;;;2.70;;
30303;SDS011;17112;48.636;10.152;2023-02-01T01:28:15;3.63;;;2.75;;
30303;SDS011;17112;48.636;10.152;2023-02-01T01:30:41;3.33;;;2.97;;
30303;SDS011;17112;48.636;10.152;2023-02-01T01:33:06;4.28;;;2.97;;
30303;SDS011;17112;48.636;10.152;2023-02-01T01:35:32;3.67;;;3.03;;
30303;SDS011;17112;48.636;10.152;2023-02-01T01:37:59;3.30;;;2.65;;
30303;SDS011;17112;48.636;10.152;2023-02-01T01:40:25;4.07;;;2.90;;
30303;SDS011;17112;48.636;10.152;2023-02-01T01:42:52;4.45;;;3.13;;
30303;SDS011;17112;48.636;10.152;2023-02-01T01:47:54;3.00;;;2.30;;
30303;SDS011;17112;48.636;10.152;2023-02-01T01:50:33;4.57;;;2.40;;
30303;SDS011;17112;48.636;10.152;2023-02-01T01:53:05;6.70;;;2.45;;
30303;SDS011;17112;48.636;10.152;2023-02-01T01:55:35;4.13;;;2.53;;
30303;SDS011;17112;48.636;10.152;2023-02-01T01:58:06;4.50;;;3.10;;
30303;SDS011;17112;48.636;10.152;2023-02-01T02:00:36;3.33;;;2.53;;
30303;SDS011;17112;48.636;10.152;2023-02-01T02:03:22;3.42;;;2.42;;
30303;SDS011;17112;48.636;10.152;2023-02-01T02:05:52;3.05;;;2.30;;
30303;SDS011;17112;48.636;10.152;2023-02-01T02:08:20;2.88;;;2.10;;
30303;SDS011;17112;48.636;10.152;2023-02-01T02:10:48;3.45;;;2.40;;
30303;SDS011;17112;48.636;10.152;2023-02-01T02:13:29;4.10;;;2.28;;
30303;SDS011;17112;48.636;10.152;2023-02-01T02:18:55;2.22;;;1.80;;
30303;SDS011;17112;48.636;10.152;2023-02-01T02:27:05;2.70;;;1.60;;
30303;SDS011;17112;48.636;10.152;2023-02-01T02:35:30;4.63;;;2.03;;
30303;SDS011;17112;48.636;10.152;2023-02-01T02:44:07;3.78;;;1.83;;
30303;SDS011;17112;48.636;10.152;2023-02-01T02:46:57;2.65;;;1.55;;
30303;SDS011;17112;48.636;10.152;2023-02-01T02:50:09;3.58;;;1.95;;
30303;SDS011;17112;48.636;10.152;2023-02-01T02:53:10;2.63;;;1.60;;
30303;SDS011;17112;48.636;10.152;2023-02-01T02:56:00;1.37;;;1.27;;
30303;SDS011;17112;48.636;10.152;2023-02-01T02:58:48;2.88;;;1.60;;
30303;SDS011;17112;48.636;10.152;2023-02-01T03:01:33;2.42;;;1.50;;
30303;SDS011;17112;48.636;10.152;2023-02-01T03:04:18;3.28;;;1.92;;
30303;SDS011;17112;48.636;10.152;2023-02-01T03:06:45;2.58;;;1.77;;
30303;SDS011;17112;48.636;10.152;2023-02-01T03:09:16;1.73;;;1.60;;
30303;SDS011;17112;48.636;10.152;2023-02-01T03:11:48;2.70;;;1.55;;
30303;SDS011;17112;48.636;10.152;2023-02-01T03:14:37;3.80;;;1.85;;
30303;SDS011;17112;48.636;10.152;2023-02-01T03:17:11;2.28;;;1.67;;
30303;SDS011;17112;48.636;10.152;2023-02-01T03:19:45;1.30;;;1.20;;
30303;SDS011;17112;48.636;10.152;2023-02-01T03:22:20;2.35;;;1.48;;
30303;SDS011;17112;48.636;10.152;2023-02-01T03:24:51;1.65;;;1.20;;
30303;SDS011;17112;48.636;10.152;2023-02-01T03:32:46;2.75;;;1.50;;
30303;SDS011;17112;48.636;10.152;2023-02-01T03:35:35;1.63;;;1.52;;
30303;SDS011;17112;48.636;10.152;2023-02-01T03:38:12;1.50;;;1.40;;
30303;SDS011;17112;48.636;10.152;2023-02-01T03:41:06;1.63;;;1.38;;
30303;SDS011;17112;48.636;10.152;2023-02-01T03:43:41;1.75;;;1.50;;
30303;SDS011;17112;48.636;10.152;2023-02-01T03:46:53;1.58;;;1.48;;
30303;SDS011;17112;48.636;10.152;2023-02-01T03:49:22;2.03;;;1.60;;
30303;SDS011;17112;48.636;10.152;2023-02-01T03:51:52;2.15;;;1.25;;
30303;SDS011;17112;48.636;10.152;2023-02-01T03:54:19;1.70;;;1.35;;
30303;SDS011;17112;48.636;10.152;2023-02-01T03:56:46;1.58;;;1.38;;
30303;SDS011;17112;48.636;10.152;2023-02-01T03:59:13;1.50;;;1.30;;
30303;SDS011;17112;48.636;10.152;2023-02-01T04:01:39;1.33;;;1.23;;
30303;SDS011;17112;48.636;10.152;2023-02-01T04:04:05;1.30;;;1.20;;
30303;SDS011;17112;48.636;10.152;2023-02-01T04:06:32;2.05;;;1.40;;
30303;SDS011;17112;48.636;10.152;2023-02-01T04:08:57;1.77;;;1.40;;
30303;SDS011;17112;48.636;10.152;2023-02-01T04:11:23;2.63;;;1.67;;
30303;SDS011;17112;48.636;10.152;2023-02-01T04:13:48;3.28;;;1.85;;
30303;SDS011;17112;48.636;10.152;2023-02-01T04:16:14;3.05;;;2.15;;
30303;SDS011;17112;48.636;10.152;2023-02-01T04:18:40;2.70;;;1.80;;
30303;SDS011;17112;48.636;10.152;2023-02-01T04:21:06;1.70;;;1.60;;
30303;SDS011;17112;48.636;10.152;2023-02-01T04:23:31;1.50;;;1.40;;
30303;SDS011;17112;48.636;10.152;2023-02-01T04:26:00;4.13;;;1.40;;
30303;SDS011;17112;48.636;10.152;2023-02-01T04:28:28;2.45;;;1.60;;
30303;SDS011;17112;48.636;10.152;2023-02-01T04:30:54;1.65;;;1.55;;
30303;SDS011;17112;48.636;10.152;2023-02-01T04:33:19;1.85;;;1.60;;
30303;SDS011;17112;48.636;10.152;2023-02-01T04:35:45;1.60;;;1.50;;
30303;SDS011;17112;48.636;10.152;2023-02-01T04:38:11;2.83;;;1.60;;
30303;SDS011;17112;48.636;10.152;2023-02-01T04:40:37;2.53;;;1.55;;
30303;SDS011;17112;48.636;10.152;2023-02-01T04:43:03;3.67;;;1.80;;
30303;SDS011;17112;48.636;10.152;2023-02-01T04:45:29;2.67;;;1.90;;
30303;SDS011;17112;48.636;10.152;2023-02-01T04:47:54;2.67;;;1.73;;
30303;SDS011;17112;48.636;10.152;2023-02-01T04:50:20;1.85;;;1.70;;
30303;SDS011;17112;48.636;10.152;2023-02-01T04:52:46;1.52;;;1.42;;
30303;SDS011;17112;48.636;10.152;2023-02-01T04:55:12;1.58;;;1.45;;
30303;SDS011;17112;48.636;10.152;2023-02-01T04:57:38;2.08;;;1.50;;
30303;SDS011;17112;48.636;10.152;2023-02-01T05:00:06;1.70;;;1.50;;
30303;SDS011;17112;48.636;10.152;2023-02-01T05:02:33;1.63;;;1.33;;
30303;SDS011;17112;48.636;10.152;2023-02-01T05:05:00;2.10;;;1.90;;
30303;SDS011;17112;48.636;10.152;2023-02-01T05:07:26;1.63;;;1.52;;
30303;SDS011;17112;48.636;10.152;2023-02-01T05:09:52;1.63;;;1.50;;
30303;SDS011;17112;48.636;10.152;2023-02-01T05:12:17;1.90;;;1.42;;
30303;SDS011;17112;48.636;10.152;2023-02-01T05:15:01;1.60;;;1.48;;
30303;SDS011;17112;48.636;10.152;2023-02-01T05:17:27;1.75;;;1.60;;
30303;SDS011;17112;48.636;10.152;2023-02-01T05:19:53;3.17;;;1.30;;
30303;SDS011;17112;48.636;10.152;2023-02-01T05:22:18;1.70;;;1.30;;
30303;SDS011;17112;48.636;10.152;2023-02-01T05:24:44;1.45;;;1.35;;
30303;SDS011;17112;48.636;10.152;2023-02-01T05:27:10;1.80;;;1.48;;
30303;SDS011;17112;48.636;10.152;2023-02-01T05:29:35;3.72;;;1.40;;
30303;SDS011;17112;48.636;10.152;2023-02-01T05:32:01;1.85;;;1.20;;
30303;SDS011;17112;48.636;10.152;2023-02-01T05:34:27;1.75;;;1.30;;
30303;SDS011;17112;48.636;10.152;2023-02-01T05:36:52;1.45;;;1.35;;
30303;SDS011;17112;48.636;10.152;2023-02-01T05:39:18;1.73;;;1.55;;
30303;SDS011;17112;48.636;10.152;2023-02-01T05:41:44;5.03;;;2.00;;
30303;SDS011;17112;48.636;10.152;2023-02-01T05:44:10;4.93;;;2.33;;
30303;SDS011;17112;48.636;10.152;2023-02-01T05:46:36;2.15;;;1.95;;
30303;SDS011;17112;48.636;10.152;2023-02-01T05:49:02;2.70;;;2.10;;
30303;SDS011;17112;48.636;10.152;2023-02-01T05:51:28;2.20;;;1.98;;
30303;SDS011;17112;48.636;10.152;2023-02-01T05:53:54;2.58;;;1.80;;
30303;SDS011;17112;48.636;10.152;2023-02-01T05:56:20;2.53;;;1.88;;
30303;SDS011;17112;48.636;10.152;2023-02-01T05:58:45;3.15;;;1.92;;
30303;SDS011;17112;48.636;10.152;2023-02-01T06:01:11;2.65;;;1.55;;
30303;SDS011;17112;48.636;10.152;2023-02-01T06:03:36;2.08;;;1.60;;
30303;SDS011;17112;48.636;10.152;2023-02-01T06:06:02;4.63;;;1.80;;
30303;SDS011;17112;48.636;10.152;2023-02-01T06:08:29;2.65;;;2.33;;
30303;SDS011;17112;48.636;10.152;2023-02-01T06:10:58;4.40;;;2.53;;
30303;SDS011;17112;48.636;10.152;2023-02-01T06:13:25;4.00;;;1.98;;
30303;SDS011;17112;48.636;10.152;2023-02-01T06:15:50;2.53;;;1.95;;
30303;SDS011;17112;48.636;10.152;2023-02-01T06:18:16;2.33;;;1.90;;
30303;SDS011;17112;48.636;10.152;2023-02-01T06:20:42;3.90;;;1.85;;
30303;SDS011;17112;48.636;10.152;2023-02-01T06:23:08;1.77;;;1.63;;
30303;SDS011;17112;48.636;10.152;2023-02-01T06:25:34;2.20;;;1.83;;
30303;SDS011;17112;48.636;10.152;2023-02-01T06:28:00;2.15;;;1.80;;
30303;SDS011;17112;48.636;10.152;2023-02-01T06:30:26;2.60;;;1.90;;
30303;SDS011;17112;48.636;10.152;2023-02-01T06:32:52;2.17;;;1.50;;
30303;SDS011;17112;48.636;10.152;2023-02-01T06:35:18;3.33;;;1.60;;
30303;SDS011;17112;48.636;10.152;2023-02-01T06:37:44;2.22;;;1.55;;
30303;SDS011;17112;48.636;10.152;2023-02-01T06:40:10;2.97;;;1.85;;
30303;SDS011;17112;48.636;10.152;2023-02-01T06:42:36;2.95;;;1.70;;
30303;SDS011;17112;48.636;10.152;2023-02-01T06:45:02;5.40;;;2.00;;
30303;SDS011;17112;48.636;10.152;2023-02-01T06:47:28;3.35;;;2.25;;
30303;SDS011;17112;48.636;10.152;2023-02-01T06:49:53;2.35;;;1.70;;
30303;SDS011;17112;48.636;10.152;2023-02-01T06:52:19;5.05;;;2.13;;
30303;SDS011;17112;48.636;10.152;2023-02-01T06:54:44;3.35;;;2.63;;
30303;SDS011;17112;48.636;10.152;2023-02-01T06:57:10;2.35;;;1.88;;
30303;SDS011;17112;48.636;10.152;2023-02-01T06:59:36;3.40;;;1.67;;
30303;SDS011;17112;48.636;10.152;2023-02-01T07:02:02;6.00;;;2.63;;
30303;SDS011;17112;48.636;10.152;2023-02-01T07:04:27;4.70;;;1.85;;
30303;SDS011;17112;48.636;10.152;2023-02-01T07:06:53;1.83;;;1.67;;
30303;SDS011;17112;48.636;10.152;2023-02-01T07:09:19;1.55;;;1.45;;
30303;SDS011;17112;48.636;10.152;2023-02-01T07:11:44;3.35;;;1.70;;
30303;SDS011;17112;48.636;10.152;2023-02-01T07:14:10;2.20;;;1.52;;
30303;SDS011;17112;48.636;10.152;2023-02-01T07:16:36;2.33;;;1.83;;
30303;SDS011;17112;48.636;10.152;2023-02-01T07:19:02;3.00;;;2.10;;
30303;SDS011;17112;48.636;10.152;2023-02-01T07:21:27;5.28;;;1.92;;
30303;SDS011;17112;48.636;10.152;2023-02-01T07:23:54;2.40;;;1.70;;
30303;SDS011;17112;48.636;10.152;2023-02-01T07:26:19;2.00;;;1.73;;
30303;SDS011;17112;48.636;10.152;2023-02-01T07:28:45;3.17;;;1.50;;
30303;SDS011;17112;48.636;10.152;2023-02-01T07:31:13;3.42;;;1.85;;
30303;SDS011;17112;48.636;10.152;2023-02-01T07:33:40;2.83;;;1.75;;
30303;SDS011;17112;48.636;10.152;2023-02-01T07:36:07;1.50;;;1.40;;
30303;SDS011;17112;48.636;10.152;2023-02-01T07:38:37;2.92;;;1.92;;
30303;SDS011;17112;48.636;10.152;2023-02-01T07:41:03;2.20;;;1.83;;
30303;SDS011;17112;48.636;10.152;2023-02-01T07:43:30;5.05;;;2.35;;
30303;SDS011;17112;48.636;10.152;2023-02-01T07:45:58;18.80;;;10.55;;
30303;SDS011;17112;48.636;10.152;2023-02-01T07:48:24;6.45;;;3.95;;
30303;SDS011;17112;48.636;10.152;2023-02-01T07:53:31;7.40;;;2.63;;
30303;SDS011;17112;48.636;10.152;2023-02-01T07:55:58;4.50;;;2.00;;
30303;SDS011;17112;48.636;10.152;2023-02-01T07:58:24;3.33;;;2.10;;
30303;SDS011;17112;48.636;10.152;2023-02-01T08:00:50;3.53;;;1.83;;
30303;SDS011;17112;48.636;10.152;2023-02-01T08:03:35;3.05;;;1.90;;
30303;SDS011;17112;48.636;10.152;2023-02-01T08:06:01;6.88;;;2.65;;
30303;SDS011;17112;48.636;10.152;2023-02-01T08:08:27;4.25;;;2.03;;
30303;SDS011;17112;48.636;10.152;2023-02-01T08:10:59;3.13;;;2.20;;
30303;SDS011;17112;48.636;10.152;2023-02-01T08:13:26;4.45;;;2.10;;
30303;SDS011;17112;48.636;10.152;2023-02-01T08:15:51;6.40;;;2.35;;
30303;SDS011;17112;48.636;10.152;2023-02-01T08:18:17;5.78;;;1.95;;
30303;SDS011;17112;48.636;10.152;2023-02-01T08:20:44;4.55;;;2.30;;
30303;SDS011;17112;48.636;10.152;2023-02-01T08:23:10;5.95;;;2.08;;
30303;SDS011;17112;48.636;10.152;2023-02-01T08:25:37;6.68;;;1.90;;
30303;SDS011;17112;48.636;10.152;2023-02-01T08:28:03;3.35;;;1.83;;
30303;SDS011;17112;48.636;10.152;2023-02-01T08:30:30;3.38;;;1.92;;
30303;SDS011;17112;48.636;10.152;2023-02-01T08:32:55;2.58;;;1.60;;
30303;SDS011;17112;48.636;10.152;2023-02-01T08:35:22;4.97;;;1.65;;
30303;SDS011;17112;48.636;10.152;2023-02-01T08:37:49;4.78;;;2.40;;
30303;SDS011;17112;48.636;10.152;2023-02-01T08:40:15;5.63;;;2.45;;
30303;SDS011;17112;48.636;10.152;2023-02-01T08:42:41;6.47;;;2.58;;
30303;SDS011;17112;48.636;10.152;2023-02-01T08:45:15;5.13;;;1.70;;
30303;SDS011;17112;48.636;10.152;2023-02-01T08:47:42;8.32;;;2.35;;
30303;SDS011;17112;48.636;10.152;2023-02-01T08:50:08;5.25;;;2.35;;
30303;SDS011;17112;48.636;10.152;2023-02-01T08:52:34;11.40;;;4.93;;
30303;SDS011;17112;48.636;10.152;2023-02-01T08:55:00;4.57;;;2.13;;
30303;SDS011;17112;48.636;10.152;2023-02-01T08:57:26;6.28;;;2.10;;
30303;SDS011;17112;48.636;10.152;2023-02-01T08:59:51;6.03;;;2.08;;
30303;SDS011;17112;48.636;10.152;2023-02-01T09:02:17;2.70;;;2.08;;
30303;SDS011;17112;48.636;10.152;2023-02-01T09:04:43;4.90;;;2.17;;
30303;SDS011;17112;48.636;10.152;2023-02-01T09:07:09;6.75;;;2.28;;
30303;SDS011;17112;48.636;10.152;2023-02-01T09:09:35;7.15;;;2.10;;
30303;SDS011;17112;48.636;10.152;2023-02-01T09:12:03;5.63;;;2.22;;
30303;SDS011;17112;48.636;10.152;2023-02-01T09:14:29;7.07;;;2.90;;
30303;SDS011;17112;48.636;10.152;2023-02-01T09:16:55;11.40;;;2.78;;
30303;SDS011;17112;48.636;10.152;2023-02-01T09:19:21;6.35;;;2.38;;
30303;SDS011;17112;48.636;10.152;2023-02-01T09:21:46;4.88;;;2.30;;
30303;SDS011;17112;48.636;10.152;2023-02-01T09:24:12;3.75;;;2.22;;
30303;SDS011;17112;48.636;10.152;2023-02-01T09:26:38;11.07;;;2.42;;
30303;SDS011;17112;48.636;10.152;2023-02-01T09:29:04;7.43;;;2.35;;
30303;SDS011;17112;48.636;10.152;2023-02-01T09:31:37;8.00;;;2.63;;
30303;SDS011;17112;48.636;10.152;2023-02-01T09:34:04;12.15;;;2.83;;
30303;SDS011;17112;48.636;10.152;2023-02-01T09:36:30;9.20;;;2.70;;
30303;SDS011;17112;48.636;10.152;2023-02-01T09:38:56;7.03;;;2.42;;
30303;SDS011;17112;48.636;10.152;2023-02-01T09:46:47;10.45;;;3.03;;
30303;SDS011;17112;48.636;10.152;2023-02-01T09:49:15;8.70;;;2.42;;
30303;SDS011;17112;48.636;10.152;2023-02-01T09:51:45;9.85;;;2.28;;
30303;SDS011;17112;48.636;10.152;2023-02-01T09:54:17;10.50;;;2.42;;
30303;SDS011;17112;48.636;10.152;2023-02-01T10:01:50;6.97;;;2.83;;
30303;SDS011;17112;48.636;10.152;2023-02-01T10:04:15;13.95;;;2.92;;
30303;SDS011;17112;48.636;10.152;2023-02-01T10:09:35;16.52;;;3.40;;
30303;SDS011;17112;48.636;10.152;2023-02-01T10:17:48;4.93;;;1.85;;
30303;SDS011;17112;48.636;10.152;2023-02-01T10:26:26;6.70;;;2.17;;
30303;SDS011;17112;48.636;10.152;2023-02-01T10:29:01;8.05;;;2.60;;
30303;SDS011;17112;48.636;10.152;2023-02-01T10:31:29;5.93;;;2.20;;
30303;SDS011;17112;48.636;10.152;2023-02-01T10:33:59;11.70;;;2.60;;
30303;SDS011;17112;48.636;10.152;2023-02-01T10:39:05;8.13;;;2.75;;
30303;SDS011;17112;48.636;10.152;2023-02-01T10:41:36;10.13;;;2.92;;
30303;SDS011;17112;48.636;10.152;2023-02-01T10:44:06;8.65;;;2.80;;
30303;SDS011;17112;48.636;10.152;2023-02-01T10:46:38;11.70;;;2.70;;
30303;SDS011;17112;48.636;10.152;2023-02-01T10:49:04;5.18;;;2.50;;
30303;SDS011;17112;48.636;10.152;2023-02-01T10:54:22;10.30;;;2.65;;
30303;SDS011;17112;48.636;10.152;2023-02-01T10:56:57;12.82;;;2.72;;
30303;SDS011;17112;48.636;10.152;2023-02-01T10:59:27;10.48;;;3.70;;
30303;SDS011;17112;48.636;10.152;2023-02-01T11:01:58;10.95;;;2.13;;
30303;SDS011;17112;48.636;10.152;2023-02-01T11:04:27;8.57;;;2.88;;
30303;SDS011;17112;48.636;10.152;2023-02-01T11:07:06;6.50;;;2.17;;
30303;SDS011;17112;48.636;10.152;2023-02-01T11:09:38;13.43;;;2.53;;
30303;SDS011;17112;48.636;10.152;2023-02-01T11:12:10;9.00;;;3.00;;
30303;SDS011;17112;48.636;10.152;2023-02-01T11:14:48;11.32;;;2.83;;
30303;SDS011;17112;48.636;10.152;2023-02-01T11:19:51;12.98;;;3.10;;
30303;SDS011;17112;48.636;10.152;2023-02-01T11:22:25;11.77;;;2.25;;
30303;SDS011;17112;48.636;10.152;2023-02-01T11:24:53;10.95;;;3.10;;
30303;SDS011;17112;48.636;10.152;2023-02-01T11:27:20;11.35;;;2.95;;
30303;SDS011;17112;48.636;10.152;2023-02-01T11:29:48;11.60;;;2.67;;
30303;SDS011;17112;48.636;10.152;2023-02-01T11:32:16;12.40;;;2.63;;
30303;SDS011;17112;48.636;10.152;2023-02-01T11:34:55;10.73;;;2.83;;
30303;SDS011;17112;48.636;10.152;2023-02-01T11:37:25;8.82;;;2.70;;
30303;SDS011;17112;48.636;10.152;2023-02-01T11:42:26;12.27;;;2.17;;
30303;SDS011;17112;48.636;10.152;2023-02-01T11:47:45;8.50;;;2.38;;
30303;SDS011;17112;48.636;10.152;2023-02-01T12:01:30;17.25;;;3.30;;
30303;SDS011;17112;48.636;10.152;2023-02-01T12:06:53;14.25;;;3.40;;
30303;SDS011;17112;48.636;10.152;2023-02-01T12:09:39;11.02;;;3.30;;
30303;SDS011;17112;48.636;10.152;2023-02-01T12:12:25;13.95;;;2.55;;
30303;SDS011;17112;48.636;10.152;2023-02-01T12:17:48;10.48;;;2.10;;
30303;SDS011;17112;48.636;10.152;2023-02-01T12:23:09;9.32;;;2.75;;
30303;SDS011;17112;48.636;10.152;2023-02-01T12:36:46;14.00;;;3.20;;
30303;SDS011;17112;48.636;10.152;2023-02-01T12:39:24;6.82;;;2.60;;
30303;SDS011;17112;48.636;10.152;2023-02-01T12:42:07;14.65;;;3.63;;
30303;SDS011;17112;48.636;10.152;2023-02-01T12:44:40;8.63;;;2.50;;
30303;SDS011;17112;48.636;10.152;2023-02-01T12:47:29;10.18;;;2.28;;
30303;SDS011;17112;48.636;10.152;2023-02-01T12:50:02;7.80;;;2.85;;
30303;SDS011;17112;48.636;10.152;2023-02-01T12:52:50;12.88;;;2.72;;
30303;SDS011;17112;48.636;10.152;2023-02-01T12:55:33;13.07;;;3.13;;
30303;SDS011;17112;48.636;10.152;2023-02-01T12:58:04;6.63;;;2.67;;
30303;SDS011;17112;48.636;10.152;2023-02-01T13:00:44;13.60;;;2.38;;
30303;SDS011;17112;48.636;10.152;2023-02-01T13:11:36;10.13;;;2.13;;
30303;SDS011;17112;48.636;10.152;2023-02-01T13:17:37;10.35;;;2.50;;
30303;SDS011;17112;48.636;10.152;2023-02-01T13:19:51;14.38;;;2.72;;
30303;SDS011;17112;48.636;10.152;2023-02-01T13:22:22;15.93;;;2.88;;
30303;SDS011;17112;48.636;10.152;2023-02-01T13:24:57;9.18;;;2.33;;
30303;SDS011;17112;48.636;10.152;2023-02-01T13:27:26;12.35;;;2.80;;
30303;SDS011;17112;48.636;10.152;2023-02-01T13:41:13;6.80;;;2.33;;
30303;SDS011;17112;48.636;10.152;2023-02-01T13:43:52;11.63;;;2.85;;
30303;SDS011;17112;48.636;10.152;2023-02-01T13:46:43;10.82;;;2.13;;
30303;SDS011;17112;48.636;10.152;2023-02-01T13:49:25;7.78;;;2.45;;
30303;SDS011;17112;48.636;10.152;2023-02-01T13:51:54;8.38;;;2.47;;
30303;SDS011;17112;48.636;10.152;2023-02-01T13:54:32;10.77;;;2.53;;
30303;SDS011;17112;48.636;10.152;2023-02-01T13:57:02;10.82;;;2.50;;
30303;SDS011;17112;48.636;10.152;2023-02-01T14:05:12;11.85;;;2.42;;
30303;SDS011;17112;48.636;10.152;2023-02-01T14:11:30;12.60;;;2.92;;
30303;SDS011;17112;48.636;10.152;2023-02-01T14:21:15;13.00;;;2.53;;
30303;SDS011;17112;48.636;10.152;2023-02-01T14:29:10;8.13;;;2.50;;
30303;SDS011;17112;48.636;10.152;2023-02-01T14:34:24;7.43;;;2.85;;
30303;SDS011;17112;48.636;10.152;2023-02-01T14:44:52;5.93;;;2.15;;
30303;SDS011;17112;48.636;10.152;2023-02-01T14:50:02;11.23;;;2.70;;
30303;SDS011;17112;48.636;10.152;2023-02-01T14:52:38;13.80;;;3.15;;
30303;SDS011;17112;48.636;10.152;2023-02-01T14:55:13;9.73;;;3.13;;
30303;SDS011;17112;48.636;10.152;2023-02-01T14:57:43;7.18;;;2.25;;
30303;SDS011;17112;48.636;10.152;2023-02-01T15:02:50;10.18;;;2.40;;
30303;SDS011;17112;48.636;10.152;2023-02-01T15:07:46;10.18;;;2.70;;
30303;SDS011;17112;48.636;10.152;2023-02-01T15:10:12;9.55;;;2.65;;
30303;SDS011;17112;48.636;10.152;2023-02-01T15:12:40;9.73;;;2.47;;
30303;SDS011;17112;48.636;10.152;2023-02-01T15:15:19;9.10;;;2.15;;
30303;SDS011;17112;48.636;10.152;2023-02-01T15:17:54;7.07;;;2.00;;
30303;SDS011;17112;48.636;10.152;2023-02-01T15:23:37;10.80;;;2.67;;
30303;SDS011;17112;48.636;10.152;2023-02-01T15:25:44;11.82;;;2.85;;
30303;SDS011;17112;48.636;10.152;2023-02-01T15:28:12;10.13;;;2.47;;
30303;SDS011;17112;48.636;10.152;2023-02-01T15:30:39;10.07;;;2.60;;
30303;SDS011;17112;48.636;10.152;2023-02-01T15:33:16;10.98;;;2.72;;
30303;SDS011;17112;48.636;10.152;2023-02-01T15:35:45;8.90;;;2.40;;
30303;SDS011;17112;48.636;10.152;2023-02-01T15:38:27;9.88;;;2.50;;
30303;SDS011;17112;48.636;10.152;2023-02-01T15:46:12;9.35;;;2.35;;
30303;SDS011;17112;48.636;10.152;2023-02-01T15:48:42;11.10;;;2.80;;
30303;SDS011;17112;48.636;10.152;2023-02-01T15:51:17;13.95;;;3.03;;
30303;SDS011;17112;48.636;10.152;2023-02-01T15:53:48;9.18;;;3.13;;
30303;SDS011;17112;48.636;10.152;2023-02-01T15:58:50;11.32;;;2.60;;
30303;SDS011;17112;48.636;10.152;2023-02-01T16:01:19;7.82;;;2.92;;
30303;SDS011;17112;48.636;10.152;2023-02-01T16:03:45;8.80;;;2.35;;
30303;SDS011;17112;48.636;10.152;2023-02-01T16:08:49;13.70;;;3.10;;
30303;SDS011;17112;48.636;10.152;2023-02-01T16:11:23;7.07;;;2.08;;
30303;SDS011;17112;48.636;10.152;2023-02-01T16:13:55;12.15;;;2.88;;
30303;SDS011;17112;48.636;10.152;2023-02-01T16:16:22;15.85;;;3.97;;
30303;SDS011;17112;48.636;10.152;2023-02-01T16:18:48;13.63;;;3.38;;
30303;SDS011;17112;48.636;10.152;2023-02-01T16:21:14;12.75;;;2.88;;
30303;SDS011;17112;48.636;10.152;2023-02-01T16:23:40;9.75;;;2.63;;
30303;SDS011;17112;48.636;10.152;2023-02-01T16:26:05;8.18;;;2.92;;
30303;SDS011;17112;48.636;10.152;2023-02-01T16:28:31;9.60;;;3.15;;
30303;SDS011;17112;48.636;10.152;2023-02-01T16:30:57;10.23;;;2.85;;
30303;SDS011;17112;48.636;10.152;2023-02-01T16:33:24;9.68;;;3.17;;
30303;SDS011;17112;48.636;10.152;2023-02-01T16:35:50;7.63;;;2.38;;
30303;SDS011;17112;48.636;10.152;2023-02-01T16:38:18;10.98;;;2.72;;
30303;SDS011;17112;48.636;10.152;2023-02-01T16:40:47;9.68;;;2.70;;
30303;SDS011;17112;48.636;10.152;2023-02-01T16:43:24;8.95;;;2.80;;
30303;SDS011;17112;48.636;10.152;2023-02-01T16:45:52;11.13;;;2.83;;
30303;SDS011;17112;48.636;10.152;2023-02-01T16:48:29;10.60;;;3.30;;
30303;SDS011;17112;48.636;10.152;2023-02-01T16:51:00;10.98;;;2.75;;
30303;SDS011;17112;48.636;10.152;2023-02-01T16:53:30;10.82;;;2.92;;
30303;SDS011;17112;48.636;10.152;2023-02-01T16:55:56;11.23;;;2.90;;
30303;SDS011;17112;48.636;10.152;2023-02-01T16:58:23;10.85;;;3.35;;
30303;SDS011;17112;48.636;10.152;2023-02-01T17:00:49;29.05;;;8.32;;
30303;SDS011;17112;48.636;10.152;2023-02-01T17:03:18;13.93;;;5.20;;
30303;SDS011;17112;48.636;10.152;2023-02-01T17:05:45;15.18;;;5.28;;
30303;SDS011;17112;48.636;10.152;2023-02-01T17:08:18;12.23;;;3.25;;
30303;SDS011;17112;48.636;10.152;2023-02-01T17:10:49;8.80;;;2.90;;
30303;SDS011;17112;48.636;10.152;2023-02-01T17:13:15;7.60;;;2.05;;
30303;SDS011;17112;48.636;10.152;2023-02-01T17:15:47;15.07;;;3.10;;
30303;SDS011;17112;48.636;10.152;2023-02-01T17:18:23;13.45;;;3.20;;
30303;SDS011;17112;48.636;10.152;2023-02-01T17:20:50;9.95;;;2.88;;
30303;SDS011;17112;48.636;10.152;2023-02-01T17:23:17;10.82;;;2.72;;
30303;SDS011;17112;48.636;10.152;2023-02-01T17:25:44;7.40;;;2.40;;
30303;SDS011;17112;48.636;10.152;2023-02-01T17:28:09;9.55;;;2.65;;
30303;SDS011;17112;48.636;10.152;2023-02-01T17:30:37;8.02;;;2.90;;
30303;SDS011;17112;48.636;10.152;2023-02-01T17:33:03;10.50;;;2.90;;
30303;SDS011;17112;48.636;10.152;2023-02-01T17:35:29;8.52;;;2.95;;
30303;SDS011;17112;48.636;10.152;2023-02-01T17:37:56;10.68;;;3.03;;
30303;SDS011;17112;48.636;10.152;2023-02-01T17:40:22;18.17;;;3.25;;
30303;SDS011;17112;48.636;10.152;2023-02-01T17:42:48;10.70;;;2.63;;
30303;SDS011;17112;48.636;10.152;2023-02-01T17:45:21;11.68;;;3.15;;